Detroit, Michigan
Traffic Map
Current Weather Conditions
Detroit, Michigan
Broken Clouds
Broken Clouds
93°
Feels Like: 101°
Wind Chill: 93° Ceiling: 4500
Heat Index: 101° Visibility: 12mi
Dew Point: 72° Wind: 21mph
Humidity: 49% Direction: 250° (WSW)
Pressure: 29.87in Gusts: 26mph
Raw Report DataCYQG 181900Z 25018G23KT 12SM BKN045 BKN280 34/22 A2987 RMKCU5CI2 SLP113 DENSITY ALT 3000FT
Traffic Incident Summary
Active as of:
Severity:
Category:
InformationThere was an issue retrieving the traffic information for this location. Please try a different location or try again shortly.
Advertisements